Time;durP1;ratioP1;P1;durP2;ratioP2;P2;SDS_P1;SDS_P2;PMS_P1;PMS_P2;Temp;Humidity;BMP_temperature;BMP_pressure;BME280_temperature;BME280_humidity;BME280_pressure;Samples;Min_cycle;Max_cycle;Signal;HPM_P1;HPM_P2
2022/01/24 00:01:04;;;;;;;22.02;12.15;;;;;;;;;;5015104;28;20195;-65
2022/01/24 00:03:32;;;;;;;16.33;11.88;;;;;;;;;;5014780;28;20629;-64
2022/01/24 00:05:59;;;;;;;17.92;11.60;;;;;;;;;;5015094;28;20310;-64
2022/01/24 00:08:28;;;;;;;17.30;12.07;;;;;;;;;;5015178;28;20236;-64
2022/01/24 00:11:02;;;;;;;14.30;10.93;;;;;;;;;;5015240;28;20195;-65
2022/01/24 00:16:23;;;;;;;22.63;11.77;;;;;;;;;;5015316;28;20186;-64
2022/01/24 00:27:04;;;;;;;16.85;11.32;;;;;;;;;;5014432;28;20289;-64
2022/01/24 00:29:33;;;;;;;19.13;12.32;;;;;;;;;;5014595;28;20286;-64
2022/01/24 00:32:00;;;;;;;21.58;12.52;;;;;;;;;;5014219;28;20291;-64
2022/01/24 00:34:28;;;;;;;24.55;14.23;;;;;;;;;;5014592;28;20281;-65
2022/01/24 00:36:55;;;;;;;22.38;14.10;;;;;;;;;;5014070;28;20712;-64
2022/01/24 00:39:23;;;;;;;17.92;12.30;;;;;;;;;;5014673;28;20601;-65
2022/01/24 00:42:02;;;;;;;28.73;13.43;;;;;;;;;;5014331;28;20629;-65
2022/01/24 00:45:01;;;;;;;23.55;14.00;;;;;;;;;;5014146;28;20671;-64
2022/01/24 00:47:45;;;;;;;22.65;13.43;;;;;;;;;;5014271;28;20216;-65
2022/01/24 00:53:17;;;;;;;20.02;13.00;;;;;;;;;;5014106;28;20221;-66
2022/01/24 00:55:46;;;;;;;18.45;11.30;;;;;;;;;;5013972;28;20194;-65
2022/01/24 00:58:13;;;;;;;22.02;13.18;;;;;;;;;;5013874;28;20729;-65
2022/01/24 01:00:40;;;;;;;16.90;12.00;;;;;;;;;;5014071;28;20293;-65
2022/01/24 01:03:09;;;;;;;24.38;12.63;;;;;;;;;;5014113;28;20237;-64
2022/01/24 01:05:55;;;;;;;18.13;11.77;;;;;;;;;;5014070;28;20195;-64
2022/01/24 01:19:24;;;;;;;18.58;11.65;;;;;;;;;;5013656;28;20180;-65
2022/01/24 01:21:51;;;;;;;20.35;12.32;;;;;;;;;;5013511;28;20205;-65
2022/01/24 01:24:19;;;;;;;17.20;11.38;;;;;;;;;;5014332;28;20235;-65
2022/01/24 01:26:51;;;;;;;16.83;12.02;;;;;;;;;;5013683;28;20221;-65
2022/01/24 01:29:23;;;;;;;17.75;11.68;;;;;;;;;;5013868;28;20191;-64
2022/01/24 01:31:59;;;;;;;15.45;10.93;;;;;;;;;;5013946;28;20592;-64
2022/01/24 01:34:57;;;;;;;20.13;11.68;;;;;;;;;;5013794;28;20188;-65
2022/01/24 01:54:20;;;;;;;18.73;13.45;;;;;;;;;;5152390;27;20178;-66
2022/01/24 01:56:47;;;;;;;19.10;12.27;;;;;;;;;;5152948;27;20190;-67
2022/01/24 01:59:15;;;;;;;20.93;14.00;;;;;;;;;;5152051;27;20726;-65
2022/01/24 02:01:43;;;;;;;21.13;13.45;;;;;;;;;;5152229;27;20900;-67
2022/01/24 02:04:10;;;;;;;21.50;14.20;;;;;;;;;;5151900;27;20245;-67
2022/01/24 02:06:38;;;;;;;20.25;13.10;;;;;;;;;;5152198;27;20230;-65
2022/01/24 02:09:06;;;;;;;22.40;14.70;;;;;;;;;;5152141;27;20221;-66
2022/01/24 02:11:33;;;;;;;19.08;12.70;;;;;;;;;;5152540;27;20198;-66
2022/01/24 02:14:04;;;;;;;21.30;13.93;;;;;;;;;;5151788;27;20224;-66
2022/01/24 02:16:42;;;;;;;25.05;16.20;;;;;;;;;;5152570;27;20190;-65
2022/01/24 02:19:22;;;;;;;22.90;12.90;;;;;;;;;;5152438;27;20182;-65
2022/01/24 02:22:07;;;;;;;20.63;13.93;;;;;;;;;;5151575;27;20211;-66
2022/01/24 02:24:41;;;;;;;17.20;12.90;;;;;;;;;;5151632;27;20191;-65
2022/01/24 02:27:09;;;;;;;25.85;14.00;;;;;;;;;;5151988;27;20179;-65
2022/01/24 02:29:50;;;;;;;19.35;13.05;;;;;;;;;;5151871;27;20206;-65
2022/01/24 02:32:17;;;;;;;17.27;12.10;;;;;;;;;;5151792;27;20190;-65
2022/01/24 02:34:48;;;;;;;19.57;12.73;;;;;;;;;;5151602;27;20468;-66
2022/01/24 02:37:19;;;;;;;21.60;13.63;;;;;;;;;;5151961;27;20854;-65
2022/01/24 02:39:57;;;;;;;19.02;12.30;;;;;;;;;;5151650;27;20537;-65
2022/01/24 02:51:11;;;;;;;21.00;12.27;;;;;;;;;;5151228;27;20203;-65
2022/01/24 02:53:40;;;;;;;16.90;11.20;;;;;;;;;;5142309;27;20226;-65
2022/01/24 02:56:08;;;;;;;17.00;11.27;;;;;;;;;;5137131;27;20728;-65
2022/01/24 02:58:35;;;;;;;18.45;12.43;;;;;;;;;;5137317;27;20195;-65
2022/01/24 03:01:06;;;;;;;19.85;12.40;;;;;;;;;;5137007;27;20196;-66
2022/01/24 03:03:33;;;;;;;15.68;12.32;;;;;;;;;;5137110;27;20183;-65
2022/01/24 03:06:01;;;;;;;19.77;13.35;;;;;;;;;;5138123;27;20198;-65
2022/01/24 03:08:28;;;;;;;17.35;13.38;;;;;;;;;;5137219;27;20244;-65
2022/01/24 03:10:58;;;;;;;21.08;13.70;;;;;;;;;;5137566;27;20192;-65
2022/01/24 03:13:33;;;;;;;15.95;11.27;;;;;;;;;;5137027;27;20270;-65
2022/01/24 03:16:01;;;;;;;14.75;10.82;;;;;;;;;;5137074;27;20183;-65
2022/01/24 03:18:29;;;;;;;15.23;10.93;;;;;;;;;;5136773;27;20293;-65
2022/01/24 03:20:57;;;;;;;15.77;10.60;;;;;;;;;;5136854;27;20196;-66
2022/01/24 03:23:25;;;;;;;16.30;11.00;;;;;;;;;;5137091;27;20310;-65
2022/01/24 03:25:52;;;;;;;16.58;11.63;;;;;;;;;;5137227;27;20537;-65
2022/01/24 03:28:21;;;;;;;19.08;13.15;;;;;;;;;;5137526;27;20195;-66
2022/01/24 03:30:48;;;;;;;16.80;11.13;;;;;;;;;;5137379;27;20223;-66
2022/01/24 03:33:15;;;;;;;19.00;11.60;;;;;;;;;;5136780;27;20480;-66
2022/01/24 03:35:43;;;;;;;17.10;11.82;;;;;;;;;;5137184;27;20360;-66
2022/01/24 03:38:12;;;;;;;16.33;11.10;;;;;;;;;;5138065;27;20192;-65
2022/01/24 03:40:39;;;;;;;18.40;11.50;;;;;;;;;;5137397;27;20199;-65
2022/01/24 03:43:06;;;;;;;19.20;11.85;;;;;;;;;;5137304;27;20518;-64
2022/01/24 03:45:42;;;;;;;14.63;11.20;;;;;;;;;;5136652;27;20199;-65
2022/01/24 03:48:21;;;;;;;14.60;12.33;;;;;;;;;;5137935;27;20425;-65
2022/01/24 03:50:49;;;;;;;19.38;11.95;;;;;;;;;;5137491;27;20424;-65
2022/01/24 03:53:16;;;;;;;20.40;13.05;;;;;;;;;;5136774;27;20290;-65
2022/01/24 03:55:43;;;;;;;17.27;11.80;;;;;;;;;;5136796;27;20224;-65
2022/01/24 03:58:10;;;;;;;13.40;11.30;;;;;;;;;;5136755;27;20234;-64
2022/01/24 04:00:39;;;;;;;16.98;11.30;;;;;;;;;;5136551;27;20230;-65
2022/01/24 04:03:06;;;;;;;15.82;12.05;;;;;;;;;;5136066;27;20276;-65
2022/01/24 04:05:34;;;;;;;22.15;13.25;;;;;;;;;;5135721;27;20237;-65
2022/01/24 04:08:01;;;;;;;19.00;11.75;;;;;;;;;;5136327;27;20191;-65
2022/01/24 04:10:29;;;;;;;20.38;12.85;;;;;;;;;;5136844;27;20282;-65
2022/01/24 04:13:07;;;;;;;15.27;12.02;;;;;;;;;;5136650;27;20195;-64
2022/01/24 04:15:46;;;;;;;15.75;11.82;;;;;;;;;;5136076;27;20187;-64
2022/01/24 04:18:35;;;;;;;15.43;11.02;;;;;;;;;;5136192;27;20185;-65
2022/01/24 04:21:20;;;;;;;16.20;11.45;;;;;;;;;;5136321;27;20694;-66
2022/01/24 04:23:52;;;;;;;17.42;11.95;;;;;;;;;;5136410;27;20562;-65
2022/01/24 04:26:19;;;;;;;18.40;12.40;;;;;;;;;;5136450;27;20552;-65
2022/01/24 04:28:47;;;;;;;16.00;11.75;;;;;;;;;;5135670;27;20234;-65
2022/01/24 04:31:14;;;;;;;16.80;12.48;;;;;;;;;;5135773;27;20547;-65
2022/01/24 04:33:43;;;;;;;15.83;11.50;;;;;;;;;;5135842;27;20599;-65
2022/01/24 04:36:10;;;;;;;17.20;12.20;;;;;;;;;;5135582;27;20445;-66
2022/01/24 04:38:37;;;;;;;18.77;12.90;;;;;;;;;;5135444;27;20287;-65
2022/01/24 04:41:13;;;;;;;19.65;13.10;;;;;;;;;;5135248;27;20317;-65
2022/01/24 04:43:52;;;;;;;17.30;13.45;;;;;;;;;;5135316;27;20220;-65
2022/01/24 04:46:42;;;;;;;17.10;12.50;;;;;;;;;;5135817;27;20184;-65
2022/01/24 04:52:08;;;;;;;17.90;13.63;;;;;;;;;;5135230;27;20185;-65
2022/01/24 04:54:42;;;;;;;17.80;14.00;;;;;;;;;;5135918;27;20178;-65
2022/01/24 04:57:10;;;;;;;19.23;14.27;;;;;;;;;;5135690;27;20184;-66
2022/01/24 04:59:38;;;;;;;17.80;13.90;;;;;;;;;;5135145;27;20283;-65
2022/01/24 05:02:06;;;;;;;17.67;13.93;;;;;;;;;;5134994;27;20225;-65
2022/01/24 05:04:34;;;;;;;21.30;14.85;;;;;;;;;;5135777;27;20283;-66
2022/01/24 05:07:02;;;;;;;16.40;13.70;;;;;;;;;;5134711;27;20637;-66
2022/01/24 05:09:34;;;;;;;18.35;14.82;;;;;;;;;;5134551;27;20883;-65
2022/01/24 05:12:07;;;;;;;17.63;13.75;;;;;;;;;;5134936;27;20207;-65
2022/01/24 05:25:35;;;;;;;20.08;13.00;;;;;;;;;;5133889;27;20190;-66
2022/01/24 05:28:02;;;;;;;27.30;14.25;;;;;;;;;;5134474;27;20218;-66
2022/01/24 05:30:29;;;;;;;15.60;13.38;;;;;;;;;;5134697;27;20732;-66
2022/01/24 05:32:56;;;;;;;17.88;14.13;;;;;;;;;;5134602;27;20228;-66
2022/01/24 05:35:25;;;;;;;16.75;14.23;;;;;;;;;;5133879;27;20311;-66
2022/01/24 05:37:52;;;;;;;17.70;13.20;;;;;;;;;;5134199;27;20199;-66
2022/01/24 05:40:19;;;;;;;19.15;14.10;;;;;;;;;;5134053;27;20318;-66
2022/01/24 05:42:46;;;;;;;17.13;13.13;;;;;;;;;;5111181;22;20240;-65
2022/01/24 05:45:14;;;;;;;20.20;15.30;;;;;;;;;;5091543;28;20206;-66
2022/01/24 05:47:41;;;;;;;22.75;15.15;;;;;;;;;;5093179;28;20240;-68
2022/01/24 05:50:09;;;;;;;20.73;15.27;;;;;;;;;;5092922;28;20632;-65
2022/01/24 05:52:37;;;;;;;18.65;14.63;;;;;;;;;;5093437;28;20326;-67
2022/01/24 05:55:05;;;;;;;21.58;14.40;;;;;;;;;;5093455;28;20624;-67
2022/01/24 05:57:32;;;;;;;20.13;14.55;;;;;;;;;;5093523;28;20236;-66
2022/01/24 06:00:00;;;;;;;17.20;13.32;;;;;;;;;;5093348;28;20200;-67
2022/01/24 06:02:27;;;;;;;18.85;14.55;;;;;;;;;;5093525;28;20306;-67
2022/01/24 06:04:54;;;;;;;19.38;13.90;;;;;;;;;;5093423;28;20207;-66
2022/01/24 06:07:22;;;;;;;22.65;14.73;;;;;;;;;;5092764;28;20287;-66
2022/01/24 06:09:51;;;;;;;29.13;16.15;;;;;;;;;;5093443;28;20565;-67
2022/01/24 06:12:18;;;;;;;25.50;15.82;;;;;;;;;;5093067;28;20204;-67
2022/01/24 06:14:45;;;;;;;27.38;17.30;;;;;;;;;;5093393;28;20285;-67
2022/01/24 06:17:15;;;;;;;29.70;18.10;;;;;;;;;;5093103;28;20200;-66
2022/01/24 06:19:42;;;;;;;34.60;16.70;;;;;;;;;;5092329;28;20272;-67
2022/01/24 06:22:09;;;;;;;18.80;16.42;;;;;;;;;;5092066;28;20200;-66
2022/01/24 06:24:36;;;;;;;19.67;16.45;;;;;;;;;;5092626;28;20200;-72
2022/01/24 06:27:05;;;;;;;22.08;17.45;;;;;;;;;;5093104;28;20284;-66
2022/01/24 06:29:33;;;;;;;20.90;17.08;;;;;;;;;;5096031;28;20724;-67
2022/01/24 06:32:00;;;;;;;24.92;17.48;;;;;;;;;;5097085;28;20228;-67
2022/01/24 06:34:27;;;;;;;26.40;17.90;;;;;;;;;;5097284;28;20716;-67
2022/01/24 06:36:54;;;;;;;24.95;18.67;;;;;;;;;;5096940;28;20531;-67
2022/01/24 06:39:22;;;;;;;26.27;18.63;;;;;;;;;;5097061;28;20276;-67
2022/01/24 06:42:03;;;;;;;25.30;17.58;;;;;;;;;;5096639;28;20197;-67
2022/01/24 06:44:32;;;;;;;24.98;18.23;;;;;;;;;;5096936;28;20191;-68
2022/01/24 06:46:59;;;;;;;24.25;18.55;;;;;;;;;;5097596;28;20301;-67
2022/01/24 06:49:26;;;;;;;25.88;17.95;;;;;;;;;;5096601;28;20280;-67
2022/01/24 06:51:55;;;;;;;23.05;17.33;;;;;;;;;;5096466;28;20280;-67
2022/01/24 06:54:22;;;;;;;25.95;18.17;;;;;;;;;;5096928;28;20288;-68
2022/01/24 06:56:50;;;;;;;23.48;17.30;;;;;;;;;;5096802;28;20367;-67
2022/01/24 06:59:17;;;;;;;24.27;17.77;;;;;;;;;;5096524;28;20238;-67
2022/01/24 07:01:45;;;;;;;24.25;18.25;;;;;;;;;;5096849;28;20232;-67
2022/01/24 07:04:13;;;;;;;27.52;18.83;;;;;;;;;;5096032;28;20228;-67
2022/01/24 07:06:40;;;;;;;23.65;18.25;;;;;;;;;;5096638;28;20231;-67
2022/01/24 07:09:07;;;;;;;27.23;18.42;;;;;;;;;;5096315;28;20200;-67
2022/01/24 07:11:34;;;;;;;20.25;14.90;;;;;;;;;;5096721;28;20200;-67
2022/01/24 07:14:06;;;;;;;23.55;18.65;;;;;;;;;;5096724;28;20228;-67
2022/01/24 07:16:48;;;;;;;17.70;15.10;;;;;;;;;;5096399;28;20647;-67
2022/01/24 07:19:17;;;;;;;18.88;15.35;;;;;;;;;;5096607;28;20216;-67
2022/01/24 07:21:44;;;;;;;22.85;17.13;;;;;;;;;;5096435;28;20204;-67
2022/01/24 07:24:11;;;;;;;19.60;16.02;;;;;;;;;;5095986;28;20220;-67
2022/01/24 07:26:39;;;;;;;21.27;16.48;;;;;;;;;;5096131;28;20236;-67
2022/01/24 07:29:06;;;;;;;20.38;16.33;;;;;;;;;;5096469;28;20281;-67
2022/01/24 07:31:33;;;;;;;23.00;15.60;;;;;;;;;;5095998;28;20712;-67
2022/01/24 07:34:01;;;;;;;19.00;15.70;;;;;;;;;;5096391;28;20547;-67
2022/01/24 07:36:29;;;;;;;26.77;17.88;;;;;;;;;;5096178;28;20537;-68
2022/01/24 07:38:57;;;;;;;24.00;19.20;;;;;;;;;;5095520;28;20197;-67
2022/01/24 07:41:27;;;;;;;24.38;19.63;;;;;;;;;;5095693;28;20566;-67
2022/01/24 07:43:54;;;;;;;18.17;15.82;;;;;;;;;;5095000;28;20769;-68
2022/01/24 07:46:21;;;;;;;26.25;18.58;;;;;;;;;;5095391;28;20228;-68
2022/01/24 07:48:48;;;;;;;26.33;18.88;;;;;;;;;;5095684;28;20292;-68
2022/01/24 07:51:16;;;;;;;23.38;17.50;;;;;;;;;;5095511;28;20283;-67
2022/01/24 07:53:45;;;;;;;23.40;19.30;;;;;;;;;;5095450;28;20288;-68
2022/01/24 07:56:13;;;;;;;21.92;17.48;;;;;;;;;;5095507;28;20247;-67
2022/01/24 07:58:43;;;;;;;25.60;18.95;;;;;;;;;;5095011;28;20283;-67
2022/01/24 08:01:10;;;;;;;25.10;19.58;;;;;;;;;;5095201;28;20200;-67
2022/01/24 08:03:37;;;;;;;28.20;20.40;;;;;;;;;;5094726;28;20278;-67
2022/01/24 08:06:05;;;;;;;25.08;19.73;;;;;;;;;;5094963;28;20530;-67
2022/01/24 08:08:32;;;;;;;26.50;20.98;;;;;;;;;;5094887;28;20235;-67
2022/01/24 08:11:01;;;;;;;30.90;20.08;;;;;;;;;;5094598;28;20280;-67
2022/01/24 08:13:28;;;;;;;26.27;19.73;;;;;;;;;;5095180;28;20291;-67
2022/01/24 08:15:55;;;;;;;27.55;20.50;;;;;;;;;;5094503;28;20283;-67
2022/01/24 08:18:22;;;;;;;22.30;18.98;;;;;;;;;;5094945;28;20228;-68
2022/01/24 08:20:50;;;;;;;24.60;19.75;;;;;;;;;;5094426;28;20313;-67
2022/01/24 08:23:19;;;;;;;25.08;18.83;;;;;;;;;;5094625;28;20212;-67
2022/01/24 08:25:47;;;;;;;22.90;18.10;;;;;;;;;;5094870;28;20626;-67
2022/01/24 08:28:15;;;;;;;22.23;18.48;;;;;;;;;;5094648;28;20290;-67
2022/01/24 08:30:43;;;;;;;23.00;18.60;;;;;;;;;;5094370;28;20203;-67
2022/01/24 08:33:10;;;;;;;22.20;19.75;;;;;;;;;;5094291;28;20197;-68
2022/01/24 08:35:37;;;;;;;22.27;17.88;;;;;;;;;;5094335;28;20236;-67
2022/01/24 08:38:05;;;;;;;21.90;18.13;;;;;;;;;;5094424;28;20257;-67
2022/01/24 08:40:34;;;;;;;23.25;17.80;;;;;;;;;;5094493;28;20202;-67
2022/01/24 08:43:04;;;;;;;20.95;16.83;;;;;;;;;;5094579;28;20255;-67
2022/01/24 08:45:48;;;;;;;21.92;17.15;;;;;;;;;;5095059;28;20589;-68
2022/01/24 08:48:16;;;;;;;20.55;15.23;;;;;;;;;;5094980;28;20211;-68
2022/01/24 08:50:44;;;;;;;18.30;15.48;;;;;;;;;;5093782;28;20201;-67
2022/01/24 08:53:11;;;;;;;18.17;15.48;;;;;;;;;;5094999;28;20200;-67
2022/01/24 08:55:39;;;;;;;23.40;18.27;;;;;;;;;;5093814;28;20199;-67
2022/01/24 08:58:07;;;;;;;23.52;18.75;;;;;;;;;;5093801;28;20613;-67
2022/01/24 09:00:36;;;;;;;22.08;18.52;;;;;;;;;;5094049;28;20204;-67
2022/01/24 09:03:04;;;;;;;22.08;17.13;;;;;;;;;;5093594;28;20235;-67
2022/01/24 09:05:34;;;;;;;22.85;16.58;;;;;;;;;;5093627;28;20668;-67
2022/01/24 09:08:02;;;;;;;19.48;16.25;;;;;;;;;;5093767;28;20215;-67
2022/01/24 09:10:29;;;;;;;21.45;15.18;;;;;;;;;;5093774;28;20656;-67
2022/01/24 09:12:56;;;;;;;17.30;14.43;;;;;;;;;;5093479;28;20197;-68
2022/01/24 09:15:24;;;;;;;21.20;16.02;;;;;;;;;;5093374;28;20192;-68
2022/01/24 09:17:52;;;;;;;19.08;15.27;;;;;;;;;;5092613;28;20236;-67
2022/01/24 09:20:20;;;;;;;19.40;14.73;;;;;;;;;;5093798;28;20196;-67
2022/01/24 09:22:48;;;;;;;18.70;15.05;;;;;;;;;;5093451;28;20317;-68
2022/01/24 09:25:16;;;;;;;19.05;16.67;;;;;;;;;;5093243;28;20760;-67
2022/01/24 09:27:44;;;;;;;19.05;15.18;;;;;;;;;;5093376;28;20200;-67
2022/01/24 09:30:13;;;;;;;18.15;13.73;;;;;;;;;;5093458;28;20200;-67
2022/01/24 09:32:40;;;;;;;15.88;12.93;;;;;;;;;;5093822;28;20220;-67
2022/01/24 09:35:10;;;;;;;21.00;14.20;;;;;;;;;;5093509;28;20719;-68
2022/01/24 09:37:38;;;;;;;16.20;13.00;;;;;;;;;;5093416;28;20503;-67
2022/01/24 09:40:06;;;;;;;19.30;13.25;;;;;;;;;;5093777;28;20197;-67
2022/01/24 09:42:33;;;;;;;21.95;13.82;;;;;;;;;;5093093;28;20237;-67
2022/01/24 09:45:01;;;;;;;14.30;12.63;;;;;;;;;;5093157;28;20315;-67
2022/01/24 09:47:29;;;;;;;15.77;13.40;;;;;;;;;;5093430;28;20278;-67
2022/01/24 09:49:56;;;;;;;14.88;11.40;;;;;;;;;;5093142;28;20284;-67
2022/01/24 09:52:24;;;;;;;13.30;10.95;;;;;;;;;;5093151;28;20203;-68
2022/01/24 09:54:52;;;;;;;17.25;12.45;;;;;;;;;;5093457;28;20257;-67
2022/01/24 09:57:19;;;;;;;13.30;11.85;;;;;;;;;;5093092;28;20257;-68
2022/01/24 09:59:46;;;;;;;14.40;12.63;;;;;;;;;;5093454;28;20607;-67
2022/01/24 10:02:13;;;;;;;14.30;12.05;;;;;;;;;;5092964;28;20661;-68
2022/01/24 10:04:41;;;;;;;19.58;12.23;;;;;;;;;;5096583;28;20307;-67
2022/01/24 10:07:11;;;;;;;14.32;12.82;;;;;;;;;;5097586;28;20691;-67
2022/01/24 10:09:40;;;;;;;17.02;12.40;;;;;;;;;;5096904;28;20655;-67
2022/01/24 10:12:15;;;;;;;14.13;11.47;;;;;;;;;;5097429;28;20314;-67
2022/01/24 10:17:28;;;;;;;14.85;12.25;;;;;;;;;;5097043;28;20551;-68
2022/01/24 10:19:56;;;;;;;14.38;11.95;;;;;;;;;;5097271;28;20196;-68
2022/01/24 10:22:25;;;;;;;18.77;12.77;;;;;;;;;;5097156;28;20208;-68
2022/01/24 10:24:56;;;;;;;14.13;12.63;;;;;;;;;;5096337;28;20315;-68
2022/01/24 10:27:24;;;;;;;14.98;12.93;;;;;;;;;;5096998;28;20225;-68
2022/01/24 10:29:53;;;;;;;17.63;13.32;;;;;;;;;;5096864;28;20202;-67
2022/01/24 10:32:38;;;;;;;12.60;10.68;;;;;;;;;;5096597;28;20719;-67
2022/01/24 10:35:20;;;;;;;15.98;12.32;;;;;;;;;;5097339;28;20247;-68
2022/01/24 10:37:50;;;;;;;11.95;10.70;;;;;;;;;;5094705;28;20193;-68
2022/01/24 10:40:34;;;;;;;16.63;12.05;;;;;;;;;;5097056;28;20195;-68
2022/01/24 10:43:18;;;;;;;19.83;12.55;;;;;;;;;;5095978;28;20243;-67
2022/01/24 10:45:45;;;;;;;14.82;12.35;;;;;;;;;;5096121;28;20197;-67
2022/01/24 10:48:13;;;;;;;34.03;12.80;;;;;;;;;;5096244;28;20236;-67
2022/01/24 10:50:40;;;;;;;13.25;10.40;;;;;;;;;;5096499;28;20615;-68
2022/01/24 10:53:20;;;;;;;18.15;12.25;;;;;;;;;;5096096;28;20197;-67
2022/01/24 10:55:49;;;;;;;14.40;11.60;;;;;;;;;;5096730;28;20621;-68
2022/01/24 10:58:18;;;;;;;17.52;12.10;;;;;;;;;;5096416;28;20232;-67
2022/01/24 11:00:46;;;;;;;13.70;11.40;;;;;;;;;;5096242;28;20193;-67
2022/01/24 11:03:16;;;;;;;12.70;11.40;;;;;;;;;;5096349;28;20232;-67
2022/01/24 11:05:44;;;;;;;14.30;11.52;;;;;;;;;;5096072;28;20249;-68
2022/01/24 11:08:11;;;;;;;14.53;13.00;;;;;;;;;;5096723;28;20241;-67
2022/01/24 11:10:40;;;;;;;14.85;11.05;;;;;;;;;;5096663;28;20447;-67
2022/01/24 11:13:09;;;;;;;12.95;11.57;;;;;;;;;;5095890;28;20232;-67
2022/01/24 11:15:38;;;;;;;16.52;12.30;;;;;;;;;;5095343;28;20204;-67
2022/01/24 11:18:06;;;;;;;11.50;10.10;;;;;;;;;;5096167;28;20196;-67
2022/01/24 11:20:35;;;;;;;12.13;10.13;;;;;;;;;;5095991;28;20227;-67
2022/01/24 11:23:04;;;;;;;14.18;10.45;;;;;;;;;;5095889;28;20287;-68
2022/01/24 11:25:34;;;;;;;12.40;10.32;;;;;;;;;;5096151;28;20217;-67
2022/01/24 11:28:01;;;;;;;13.17;10.50;;;;;;;;;;5095444;28;20228;-67
2022/01/24 11:30:31;;;;;;;9.90;8.90;;;;;;;;;;5095453;28;20479;-68
2022/01/24 11:33:01;;;;;;;12.27;10.32;;;;;;;;;;5096324;28;20431;-67
2022/01/24 11:35:30;;;;;;;9.40;8.50;;;;;;;;;;5095624;28;20211;-67
2022/01/24 11:37:58;;;;;;;10.90;9.73;;;;;;;;;;5096633;28;20198;-67
2022/01/24 11:40:28;;;;;;;11.53;9.60;;;;;;;;;;5095274;28;20474;-67
2022/01/24 11:42:55;;;;;;;13.40;9.03;;;;;;;;;;5095663;28;20510;-67
2022/01/24 11:45:44;;;;;;;11.47;10.27;;;;;;;;;;5095180;28;20976;-67
2022/01/24 11:48:16;;;;;;;12.15;9.65;;;;;;;;;;5095692;28;20476;-68
2022/01/24 11:50:43;;;;;;;11.82;9.18;;;;;;;;;;5095348;28;20288;-67
2022/01/24 11:53:21;;;;;;;13.95;9.15;;;;;;;;;;5095697;28;20229;-67
2022/01/24 11:55:48;;;;;;;12.10;10.30;;;;;;;;;;5095041;28;20289;-67
2022/01/24 11:58:22;;;;;;;12.38;10.07;;;;;;;;;;5094990;28;20571;-67
2022/01/24 12:00:51;;;;;;;10.40;9.30;;;;;;;;;;5094993;28;20243;-67
2022/01/24 12:03:23;;;;;;;10.60;9.40;;;;;;;;;;5094887;28;20280;-67
2022/01/24 12:05:53;;;;;;;10.25;9.25;;;;;;;;;;5094878;28;20512;-68
2022/01/24 12:08:31;;;;;;;10.10;9.10;;;;;;;;;;5094937;28;20240;-67
2022/01/24 12:11:12;;;;;;;12.63;9.63;;;;;;;;;;5095801;28;20185;-67
2022/01/24 12:13:43;;;;;;;12.23;10.57;;;;;;;;;;5095384;28;20310;-68
2022/01/24 12:16:11;;;;;;;14.60;9.80;;;;;;;;;;5095273;28;20189;-67
2022/01/24 12:18:49;;;;;;;13.02;10.10;;;;;;;;;;5094542;28;20684;-67
2022/01/24 12:21:17;;;;;;;11.82;10.50;;;;;;;;;;5095352;28;20610;-67
2022/01/24 12:23:46;;;;;;;11.35;9.95;;;;;;;;;;5095206;28;20721;-67
2022/01/24 12:26:22;;;;;;;12.70;11.40;;;;;;;;;;5093592;28;20236;-67
2022/01/24 12:28:52;;;;;;;13.73;11.40;;;;;;;;;;5094468;28;20245;-67
2022/01/24 12:31:21;;;;;;;13.65;12.25;;;;;;;;;;5094642;28;20551;-68
2022/01/24 12:34:00;;;;;;;13.40;11.60;;;;;;;;;;5094790;28;20544;-68
2022/01/24 12:36:48;;;;;;;13.07;10.53;;;;;;;;;;5094270;28;20280;-67
2022/01/24 12:39:17;;;;;;;14.73;11.27;;;;;;;;;;5094199;28;20461;-68
2022/01/24 12:41:47;;;;;;;15.50;11.75;;;;;;;;;;5093898;28;20269;-71
2022/01/24 12:46:57;;;;;;;16.92;11.50;;;;;;;;;;5094145;28;20494;-65
2022/01/24 12:49:28;;;;;;;12.65;11.35;;;;;;;;;;5094581;28;20231;-65
2022/01/24 12:51:55;;;;;;;12.83;11.53;;;;;;;;;;5094013;28;20184;-64
2022/01/24 12:54:29;;;;;;;17.95;12.40;;;;;;;;;;5092258;28;20474;-64
2022/01/24 12:56:59;;;;;;;14.07;11.90;;;;;;;;;;5093081;28;20208;-65
2022/01/24 12:59:26;;;;;;;15.73;13.10;;;;;;;;;;5093140;28;20201;-64
2022/01/24 13:01:56;;;;;;;16.30;13.20;;;;;;;;;;5093346;28;20279;-64
2022/01/24 13:04:33;;;;;;;15.60;10.98;;;;;;;;;;5093255;28;20702;-65
2022/01/24 13:07:01;;;;;;;15.18;12.10;;;;;;;;;;5093225;28;20224;-65
2022/01/24 13:09:28;;;;;;;17.45;14.00;;;;;;;;;;5093602;28;20297;-65
2022/01/24 13:11:59;;;;;;;13.82;11.73;;;;;;;;;;5092940;28;20646;-65
2022/01/24 13:14:35;;;;;;;12.80;11.07;;;;;;;;;;5093161;28;20190;-65
2022/01/24 13:22:42;;;;;;;21.00;14.02;;;;;;;;;;5093408;28;20180;-64
2022/01/24 13:25:14;;;;;;;19.90;14.32;;;;;;;;;;5092815;28;20240;-66
2022/01/24 13:27:42;;;;;;;17.85;14.27;;;;;;;;;;5093175;28;20233;-65
2022/01/24 13:30:11;;;;;;;14.15;11.60;;;;;;;;;;5093623;28;20232;-65
2022/01/24 13:32:42;;;;;;;14.38;11.50;;;;;;;;;;5093142;28;20650;-65
2022/01/24 13:35:15;;;;;;;14.43;12.52;;;;;;;;;;5094030;28;20219;-65
2022/01/24 13:37:42;;;;;;;13.98;11.82;;;;;;;;;;5093015;28;20197;-65
2022/01/24 13:40:10;;;;;;;20.83;13.32;;;;;;;;;;5093169;28;20228;-65
2022/01/24 13:42:38;;;;;;;20.37;14.73;;;;;;;;;;5092958;28;20359;-66
2022/01/24 13:45:05;;;;;;;18.53;13.83;;;;;;;;;;5092839;28;20474;-66
2022/01/24 13:47:32;;;;;;;22.50;13.75;;;;;;;;;;5092612;28;20475;-65
2022/01/24 13:50:00;;;;;;;18.75;13.68;;;;;;;;;;5093513;28;20291;-65
2022/01/24 13:52:29;;;;;;;15.48;12.80;;;;;;;;;;5093167;28;20661;-65
2022/01/24 13:55:14;;;;;;;26.60;14.40;;;;;;;;;;5092913;28;20257;-65
2022/01/24 13:57:46;;;;;;;17.33;13.00;;;;;;;;;;5093859;28;20186;-64
2022/01/24 14:00:15;;;;;;;16.95;14.20;;;;;;;;;;5093228;28;20198;-65
2022/01/24 14:02:43;;;;;;;17.55;13.13;;;;;;;;;;5092965;28;20657;-64
2022/01/24 14:05:10;;;;;;;17.50;13.30;;;;;;;;;;5092848;28;20248;-64
2022/01/24 14:07:42;;;;;;;21.20;14.00;;;;;;;;;;5092601;28;20190;-64
2022/01/24 14:10:11;;;;;;;23.27;14.20;;;;;;;;;;5093880;28;20192;-65
2022/01/24 14:12:51;;;;;;;24.95;15.70;;;;;;;;;;5093355;28;20204;-65
2022/01/24 14:15:23;;;;;;;22.13;15.80;;;;;;;;;;5093328;28;20499;-64
2022/01/24 14:18:24;;;;;;;17.75;13.38;;;;;;;;;;5093348;28;20265;-64
2022/01/24 14:20:52;;;;;;;24.20;15.20;;;;;;;;;;5093161;28;20200;-65
2022/01/24 14:23:25;;;;;;;17.27;14.25;;;;;;;;;;5092409;28;20190;-64
2022/01/24 14:25:53;;;;;;;18.45;12.55;;;;;;;;;;5092463;28;20244;-65
2022/01/24 14:28:23;;;;;;;19.92;13.90;;;;;;;;;;5092909;28;20196;-65
2022/01/24 14:30:54;;;;;;;19.63;13.07;;;;;;;;;;5093330;28;20203;-65
2022/01/24 14:33:23;;;;;;;18.33;13.57;;;;;;;;;;5093203;28;20195;-65
2022/01/24 14:35:51;;;;;;;14.88;11.48;;;;;;;;;;5093055;28;20286;-64
2022/01/24 14:38:28;;;;;;;14.30;12.13;;;;;;;;;;5092661;28;20726;-65
2022/01/24 14:41:01;;;;;;;17.65;13.70;;;;;;;;;;5093398;28;20190;-65
2022/01/24 14:46:14;;;;;;;17.45;13.90;;;;;;;;;;5092184;28;20210;-65
2022/01/24 14:48:49;;;;;;;20.65;14.73;;;;;;;;;;5093126;28;20254;-65
2022/01/24 14:51:18;;;;;;;23.05;15.70;;;;;;;;;;5096525;28;20241;-65
2022/01/24 14:53:45;;;;;;;19.13;14.52;;;;;;;;;;5096221;28;20200;-65
2022/01/24 14:56:17;;;;;;;19.85;14.38;;;;;;;;;;5097080;28;20204;-65
2022/01/24 14:58:44;;;;;;;19.33;14.93;;;;;;;;;;5096492;28;20193;-64
2022/01/24 15:01:12;;;;;;;19.98;15.30;;;;;;;;;;5096474;28;20282;-65
2022/01/24 15:03:40;;;;;;;18.88;14.10;;;;;;;;;;5096182;28;20227;-65
2022/01/24 15:06:08;;;;;;;22.25;15.10;;;;;;;;;;5095256;28;20216;-64
2022/01/24 15:08:36;;;;;;;18.50;13.90;;;;;;;;;;5095744;28;20232;-65
2022/01/24 15:11:03;;;;;;;24.00;16.00;;;;;;;;;;5095968;28;20857;-65
2022/01/24 15:13:39;;;;;;;21.40;16.33;;;;;;;;;;5096512;28;20278;-65
2022/01/24 15:16:16;;;;;;;26.98;16.00;;;;;;;;;;5096042;28;20514;-64
2022/01/24 15:24:28;;;;;;;22.48;16.80;;;;;;;;;;5095396;28;20230;-65
2022/01/24 15:26:56;;;;;;;20.40;15.85;;;;;;;;;;5095342;28;20217;-65
2022/01/24 15:29:25;;;;;;;22.45;16.75;;;;;;;;;;5095929;28;20577;-65
2022/01/24 15:31:52;;;;;;;26.23;16.95;;;;;;;;;;5096544;28;20252;-66
2022/01/24 15:34:20;;;;;;;25.27;18.70;;;;;;;;;;5095989;28;20318;-64
2022/01/24 15:36:48;;;;;;;24.80;17.55;;;;;;;;;;5095871;28;20236;-66
2022/01/24 15:39:16;;;;;;;25.95;19.48;;;;;;;;;;5095271;28;20206;-65
2022/01/24 15:41:51;;;;;;;29.58;18.98;;;;;;;;;;5095360;28;20199;-65
2022/01/24 15:45:02;;;;;;;28.98;20.98;;;;;;;;;;5095399;28;20181;-65
2022/01/24 15:50:10;;;;;;;31.58;22.70;;;;;;;;;;5095523;28;20708;-65
2022/01/24 15:52:38;;;;;;;28.83;21.92;;;;;;;;;;5095006;28;20196;-65
2022/01/24 15:55:07;;;;;;;31.95;21.88;;;;;;;;;;5095195;28;20364;-64
2022/01/24 15:57:41;;;;;;;31.80;21.67;;;;;;;;;;5095012;28;20196;-65
2022/01/24 16:00:10;;;;;;;36.08;24.35;;;;;;;;;;5095541;28;20277;-65
2022/01/24 16:02:38;;;;;;;35.65;22.95;;;;;;;;;;5095115;28;20229;-65